createdAt,value
2018-07-15T00:00:25.379Z,95.40
2018-07-15T00:02:53.623Z,95.30
2018-07-15T00:05:22.071Z,95.10
2018-07-15T00:07:50.341Z,94.70
2018-07-15T00:10:18.705Z,94.90
2018-07-15T00:12:46.948Z,94.70
2018-07-15T00:17:49.840Z,95.00
2018-07-15T00:20:18.176Z,95.10
2018-07-15T00:22:46.767Z,95.20
2018-07-15T00:25:15.032Z,95.60
2018-07-15T00:27:43.276Z,95.40
2018-07-15T00:30:11.532Z,94.80
2018-07-15T00:32:39.774Z,94.90
2018-07-15T00:35:08.041Z,94.70
2018-07-15T00:37:36.300Z,94.20
2018-07-15T00:40:04.587Z,94.20
2018-07-15T00:42:32.844Z,94.20
2018-07-15T00:45:01.107Z,94.50
2018-07-15T00:47:29.369Z,94.70
2018-07-15T00:49:57.724Z,94.70
2018-07-15T00:52:25.980Z,94.70
2018-07-15T00:54:54.236Z,94.90
2018-07-15T00:57:22.514Z,94.60
2018-07-15T00:59:50.764Z,94.60
2018-07-15T01:02:19.043Z,94.80
2018-07-15T01:04:47.297Z,94.70
2018-07-15T01:07:15.556Z,94.30
2018-07-15T01:09:43.813Z,94.10
2018-07-15T01:12:12.076Z,94.20
2018-07-15T01:14:40.328Z,94.20
2018-07-15T01:17:08.656Z,94.10
2018-07-15T01:19:37.089Z,93.80
2018-07-15T01:22:05.359Z,94.20
2018-07-15T01:24:33.616Z,94.70
2018-07-15T01:27:01.916Z,94.50
2018-07-15T01:29:30.161Z,94.80
2018-07-15T01:31:58.460Z,94.80
2018-07-15T01:34:26.702Z,94.50
2018-07-15T01:36:54.969Z,94.30
2018-07-15T01:39:23.206Z,94.30
2018-07-15T01:41:51.457Z,94.60
2018-07-15T01:44:19.734Z,94.30
2018-07-15T01:46:47.973Z,94.70
2018-07-15T01:49:16.227Z,94.70
2018-07-15T01:51:44.468Z,94.60
2018-07-15T01:54:12.712Z,94.50
2018-07-15T01:56:40.960Z,94.30
2018-07-15T01:59:09.213Z,94.10
2018-07-15T02:01:37.469Z,94.70
2018-07-15T02:04:05.792Z,94.20
2018-07-15T02:06:34.054Z,94.50
2018-07-15T02:09:02.320Z,94.70
2018-07-15T02:11:30.568Z,94.70
2018-07-15T02:13:58.824Z,94.70
2018-07-15T02:16:27.071Z,94.80
2018-07-15T02:18:55.368Z,94.70
2018-07-15T02:21:23.628Z,94.50
2018-07-15T02:23:51.876Z,94.60
2018-07-15T02:26:20.144Z,94.70
2018-07-15T02:28:48.399Z,95.00
2018-07-15T02:31:16.770Z,94.80
2018-07-15T02:33:45.022Z,94.90
2018-07-15T02:36:13.264Z,94.50
2018-07-15T02:38:41.517Z,94.50
2018-07-15T02:41:09.786Z,94.00
2018-07-15T02:43:38.028Z,94.40
2018-07-15T02:46:06.966Z,94.70
2018-07-15T02:48:35.221Z,94.90
2018-07-15T02:51:03.469Z,94.80
2018-07-15T02:53:31.725Z,94.40
2018-07-15T02:55:59.969Z,94.20
2018-07-15T02:58:28.218Z,94.20
2018-07-15T03:00:56.511Z,94.30
2018-07-15T03:03:24.752Z,94.30
2018-07-15T03:05:53.016Z,94.30
2018-07-15T03:08:21.266Z,94.30
2018-07-15T03:10:49.520Z,94.50
2018-07-15T03:13:17.865Z,94.60
2018-07-15T03:15:46.496Z,94.70
2018-07-15T03:18:14.744Z,95.00
2018-07-15T03:20:43.001Z,94.70
2018-07-15T03:23:11.248Z,95.10
2018-07-15T03:25:39.513Z,95.10
2018-07-15T03:28:07.807Z,95.20
2018-07-15T03:30:36.075Z,95.30
2018-07-15T03:33:04.322Z,95.00
2018-07-15T03:35:32.563Z,95.10
2018-07-15T03:38:00.808Z,94.70
2018-07-15T03:40:35.312Z,94.70
2018-07-15T03:43:03.564Z,94.60
2018-07-15T03:45:31.816Z,94.80
2018-07-15T03:48:00.090Z,94.50
2018-07-15T03:50:28.351Z,94.40
2018-07-15T03:52:56.600Z,94.80
2018-07-15T03:56:54.056Z,94.50
2018-07-15T03:59:22.324Z,94.40
2018-07-15T04:01:50.582Z,94.70
2018-07-15T04:04:18.830Z,94.60
2018-07-15T04:06:47.096Z,94.10
2018-07-15T04:09:15.362Z,94.40
2018-07-15T04:11:43.608Z,94.50
2018-07-15T04:14:11.847Z,94.50
2018-07-15T04:16:40.089Z,94.50
2018-07-15T04:19:08.425Z,94.50
2018-07-15T04:21:36.663Z,94.50
2018-07-15T04:24:04.937Z,94.20
2018-07-15T04:26:33.204Z,94.00
2018-07-15T04:29:01.530Z,94.20
2018-07-15T04:31:29.818Z,94.10
2018-07-15T04:33:58.084Z,94.20
2018-07-15T04:36:26.340Z,94.00
2018-07-15T04:38:54.598Z,94.10
2018-07-15T04:41:22.839Z,94.00
2018-07-15T04:43:51.176Z,93.90
2018-07-15T04:46:19.367Z,93.80
2018-07-15T04:48:47.612Z,93.70
2018-07-15T04:51:15.964Z,94.00
2018-07-15T04:53:44.423Z,94.00
2018-07-15T04:56:12.669Z,94.00
2018-07-15T04:58:40.904Z,94.10
2018-07-15T05:01:09.180Z,94.20
2018-07-15T05:03:37.433Z,93.80
2018-07-15T05:06:05.701Z,93.40
2018-07-15T05:08:33.954Z,93.40
2018-07-15T05:11:02.197Z,94.20
2018-07-15T05:13:30.448Z,94.30
2018-07-15T05:15:58.690Z,93.70
2018-07-15T05:18:26.973Z,93.40
2018-07-15T05:20:55.244Z,92.70
2018-07-15T05:23:23.500Z,92.70
2018-07-15T05:25:51.766Z,92.30
2018-07-15T05:28:20.021Z,91.40
2018-07-15T05:30:48.526Z,90.90
2018-07-15T05:33:16.777Z,90.90
2018-07-15T05:35:45.029Z,90.70
2018-07-15T05:38:13.293Z,90.80
2018-07-15T05:40:41.556Z,90.90
2018-07-15T05:43:09.871Z,89.90
2018-07-15T05:45:38.111Z,90.10
2018-07-15T05:48:06.518Z,90.00
2018-07-15T05:50:34.784Z,91.00
2018-07-15T05:53:03.065Z,90.70
2018-07-15T05:55:31.328Z,90.90
2018-07-15T05:57:59.685Z,90.60
2018-07-15T06:00:27.872Z,90.00
2018-07-15T06:02:56.127Z,90.30
2018-07-15T06:05:24.376Z,90.20
2018-07-15T06:07:52.712Z,90.10
2018-07-15T06:10:20.970Z,90.00
2018-07-15T06:12:49.238Z,89.70
2018-07-15T06:15:17.488Z,90.50
2018-07-15T06:17:45.777Z,89.80
2018-07-15T06:20:14.026Z,90.30
2018-07-15T06:22:42.301Z,89.60
2018-07-15T06:25:10.656Z,90.00
2018-07-15T06:27:38.929Z,88.60
2018-07-15T06:30:07.183Z,88.50
2018-07-15T06:32:35.456Z,89.50
2018-07-15T06:35:03.812Z,89.10
2018-07-15T06:37:32.060Z,87.60
2018-07-15T06:40:00.320Z,87.70
2018-07-15T06:42:28.648Z,87.70
2018-07-15T06:44:56.911Z,86.60
2018-07-15T06:47:25.328Z,87.00
2018-07-15T06:49:53.608Z,87.10
2018-07-15T06:52:21.902Z,86.90
2018-07-15T06:54:50.184Z,84.40
2018-07-15T06:57:18.630Z,85.20
2018-07-15T06:59:46.957Z,83.90
2018-07-15T07:02:15.244Z,82.80
2018-07-15T07:04:43.552Z,84.40
2018-07-15T07:07:11.792Z,82.60
2018-07-15T07:09:40.165Z,82.70
2018-07-15T07:12:08.485Z,81.30
2018-07-15T07:14:36.740Z,79.50
2018-07-15T07:17:05.142Z,80.30
2018-07-15T07:19:33.424Z,78.90
2018-07-15T07:22:01.704Z,79.80
2018-07-15T07:24:30.070Z,80.40
2018-07-15T07:26:58.451Z,80.30
2018-07-15T07:29:26.706Z,78.60
2018-07-15T07:31:55.028Z,79.20
2018-07-15T07:34:23.285Z,76.70
2018-07-15T07:36:51.694Z,73.70
2018-07-15T07:39:19.969Z,74.40
2018-07-15T07:41:48.229Z,74.00
2018-07-15T07:44:16.492Z,74.70
2018-07-15T07:46:44.742Z,72.50
2018-07-15T07:49:13.020Z,72.40
2018-07-15T07:51:41.313Z,72.00
2018-07-15T07:54:09.565Z,70.60
2018-07-15T07:56:37.831Z,70.30
2018-07-15T07:59:06.090Z,70.40
2018-07-15T08:01:34.332Z,68.50
2018-07-15T08:04:02.623Z,67.30
2018-07-15T08:06:37.637Z,69.00
2018-07-15T08:09:06.464Z,68.60
2018-07-15T08:11:34.812Z,66.90
2018-07-15T08:14:03.112Z,67.20
2018-07-15T08:16:31.415Z,66.40
2018-07-15T08:18:59.664Z,66.40
2018-07-15T08:21:28.046Z,65.80
2018-07-15T08:23:56.363Z,64.10
2018-07-15T08:26:24.601Z,64.60
2018-07-15T08:28:52.865Z,61.60
2018-07-15T08:31:21.135Z,63.90
2018-07-15T08:33:49.408Z,62.00
2018-07-15T08:36:17.824Z,62.40
2018-07-15T08:38:46.276Z,61.70
2018-07-15T08:41:14.612Z,63.40
2018-07-15T08:43:43.000Z,63.60
2018-07-15T08:46:11.343Z,61.00
2018-07-15T08:48:39.498Z,60.50
2018-07-15T08:51:07.900Z,62.50
2018-07-15T08:53:36.144Z,61.80
2018-07-15T08:56:04.425Z,58.50
2018-07-15T08:58:32.696Z,57.30
2018-07-15T09:01:00.993Z,57.20
2018-07-15T09:03:29.221Z,56.30
2018-07-15T09:05:57.457Z,57.30
2018-07-15T09:08:25.709Z,56.90
2018-07-15T09:10:53.980Z,56.10
2018-07-15T09:13:22.225Z,57.20
2018-07-15T09:15:50.476Z,54.30
2018-07-15T09:18:18.815Z,55.50
2018-07-15T09:20:47.068Z,55.40
2018-07-15T09:23:15.320Z,57.50
2018-07-15T09:25:43.593Z,54.10
2018-07-15T09:28:11.845Z,51.70
2018-07-15T09:30:40.155Z,53.40
2018-07-15T09:33:08.438Z,52.10
2018-07-15T09:35:36.834Z,53.80
2018-07-15T09:38:05.065Z,55.10
2018-07-15T09:40:33.325Z,54.00
2018-07-15T09:43:01.564Z,52.80
2018-07-15T09:45:29.811Z,52.00
2018-07-15T09:47:58.120Z,51.80
2018-07-15T09:50:26.353Z,51.10
2018-07-15T09:52:54.656Z,51.00
2018-07-15T09:55:22.940Z,52.70
2018-07-15T09:57:51.215Z,52.30
2018-07-15T10:00:24.865Z,51.50
2018-07-15T10:02:53.144Z,48.90
2018-07-15T10:05:21.412Z,51.50
2018-07-15T10:07:49.712Z,52.10
2018-07-15T10:10:17.969Z,52.40
2018-07-15T10:12:47.219Z,50.10
2018-07-15T10:15:15.492Z,47.10
2018-07-15T10:17:43.763Z,47.50
2018-07-15T10:20:12.025Z,49.60
2018-07-15T10:22:40.276Z,49.70
2018-07-15T10:25:08.536Z,45.40
2018-07-15T10:27:36.800Z,42.50
2018-07-15T10:30:05.121Z,44.00
2018-07-15T10:32:33.407Z,44.70
2018-07-15T10:35:01.686Z,41.80
2018-07-15T10:37:30.033Z,42.30
2018-07-15T10:39:58.280Z,42.50
2018-07-15T10:42:26.560Z,44.30
2018-07-15T10:44:54.840Z,43.90
2018-07-15T10:47:23.241Z,44.00
2018-07-15T10:49:51.493Z,45.80
2018-07-15T10:52:19.798Z,43.50
2018-07-15T10:54:48.131Z,44.60
2018-07-15T10:57:16.400Z,45.70
2018-07-15T10:59:44.662Z,43.70
2018-07-15T11:02:12.937Z,46.50
2018-07-15T11:04:41.283Z,47.60
2018-07-15T11:07:09.568Z,45.20
2018-07-15T11:09:38.015Z,43.90
2018-07-15T11:12:06.273Z,43.90
2018-07-15T11:14:34.570Z,44.50
2018-07-15T11:17:03.030Z,46.30
2018-07-15T11:19:31.280Z,46.10
2018-07-15T11:21:59.529Z,44.80
2018-07-15T11:24:27.793Z,46.90
2018-07-15T11:26:56.041Z,44.20
2018-07-15T11:29:24.320Z,44.50
2018-07-15T11:31:52.563Z,42.80
2018-07-15T11:34:20.829Z,44.00
2018-07-15T11:36:49.077Z,44.70
2018-07-15T11:39:17.437Z,44.10
2018-07-15T11:41:45.688Z,43.50
2018-07-15T11:44:13.917Z,43.70
2018-07-15T11:46:42.165Z,43.80
2018-07-15T11:49:10.405Z,43.00
2018-07-15T11:51:38.661Z,42.40
2018-07-15T11:54:06.915Z,43.70
2018-07-15T11:56:35.168Z,43.60
2018-07-15T11:59:06.486Z,42.40
2018-07-15T12:01:34.852Z,41.90
2018-07-15T12:04:03.049Z,41.40
2018-07-15T12:06:31.289Z,41.00
2018-07-15T12:08:59.534Z,40.80
2018-07-15T12:11:27.783Z,40.80
2018-07-15T12:13:56.036Z,41.20
2018-07-15T12:16:24.284Z,41.90
2018-07-15T12:18:52.570Z,42.60
2018-07-15T12:21:20.831Z,41.20
2018-07-15T12:23:49.064Z,40.20
2018-07-15T12:26:17.411Z,42.60
2018-07-15T12:28:45.645Z,41.00
2018-07-15T12:31:13.891Z,40.90
2018-07-15T12:33:42.257Z,41.00
2018-07-15T12:36:10.504Z,40.40
2018-07-15T12:38:38.856Z,39.40
2018-07-15T12:41:07.273Z,39.70
2018-07-15T12:43:35.616Z,40.20
2018-07-15T12:46:03.812Z,41.30
2018-07-15T12:48:32.067Z,40.50
2018-07-15T12:51:00.446Z,40.20
2018-07-15T12:53:28.696Z,42.80
2018-07-15T12:55:56.928Z,42.60
2018-07-15T12:58:31.445Z,40.70
2018-07-15T13:00:59.684Z,40.00
2018-07-15T13:03:27.941Z,41.60
2018-07-15T13:05:56.194Z,43.80
2018-07-15T13:08:24.449Z,41.50
2018-07-15T13:10:52.769Z,41.00
2018-07-15T13:13:21.015Z,38.70
2018-07-15T13:15:49.277Z,39.60
2018-07-15T13:18:17.518Z,40.20
2018-07-15T13:20:45.760Z,41.20
2018-07-15T13:23:14.009Z,38.90
2018-07-15T13:25:42.260Z,40.60
2018-07-15T13:28:10.512Z,40.70
2018-07-15T13:30:38.783Z,40.70
2018-07-15T13:33:07.136Z,40.50
2018-07-15T13:35:35.384Z,39.70
2018-07-15T13:38:03.628Z,41.20
2018-07-15T13:40:31.966Z,42.00
2018-07-15T13:43:00.208Z,40.90
2018-07-15T13:45:28.460Z,40.40
2018-07-15T13:47:56.718Z,41.60
2018-07-15T13:50:25.025Z,40.20
2018-07-15T13:52:53.385Z,40.50
2018-07-15T13:55:21.717Z,42.00
2018-07-15T13:57:49.984Z,40.60
2018-07-15T14:00:18.328Z,42.10
2018-07-15T14:02:46.584Z,41.60
2018-07-15T14:05:14.833Z,41.30
2018-07-15T14:07:43.086Z,42.20
2018-07-15T14:10:11.541Z,42.30
2018-07-15T14:12:39.852Z,41.20
2018-07-15T14:15:11.169Z,39.40
2018-07-15T14:17:39.377Z,39.50
2018-07-15T14:20:07.748Z,39.80
2018-07-15T14:22:36.021Z,40.80
2018-07-15T14:25:04.336Z,40.50
2018-07-15T14:27:32.635Z,42.50
2018-07-15T14:30:00.892Z,44.80
2018-07-15T14:32:29.273Z,45.80
2018-07-15T14:34:57.969Z,49.60
2018-07-15T14:37:26.516Z,54.30
2018-07-15T14:39:54.783Z,59.90
2018-07-15T14:42:23.028Z,63.40
2018-07-15T14:44:51.292Z,64.70
2018-07-15T14:47:19.548Z,66.90
2018-07-15T14:49:47.814Z,69.00
2018-07-15T14:52:16.060Z,70.50
2018-07-15T14:54:44.346Z,70.20
2018-07-15T14:57:12.589Z,67.80
2018-07-15T14:59:47.278Z,66.70
2018-07-15T15:02:15.651Z,67.10
2018-07-15T15:04:43.972Z,67.50
2018-07-15T15:07:12.229Z,68.20
2018-07-15T15:09:40.479Z,68.50
2018-07-15T15:12:08.862Z,67.20
2018-07-15T15:14:37.305Z,68.20
2018-07-15T15:17:05.673Z,67.80
2018-07-15T15:19:33.909Z,67.70
2018-07-15T15:22:02.212Z,68.30
2018-07-15T15:24:30.488Z,69.10
2018-07-15T15:26:58.738Z,70.30
2018-07-15T15:29:26.992Z,70.80
2018-07-15T15:31:55.267Z,71.20
2018-07-15T15:34:23.572Z,72.10
2018-07-15T15:36:51.844Z,73.00
2018-07-15T15:39:20.148Z,73.10
2018-07-15T15:41:48.395Z,73.00
2018-07-15T15:44:16.666Z,74.10
2018-07-15T15:46:44.916Z,75.20
2018-07-15T15:49:13.164Z,75.50
2018-07-15T15:51:41.532Z,77.40
2018-07-15T15:54:09.776Z,76.20
2018-07-15T15:56:38.055Z,75.20
2018-07-15T15:59:06.305Z,74.50
2018-07-15T16:01:34.615Z,73.20
2018-07-15T16:04:02.899Z,69.50
2018-07-15T16:06:31.173Z,68.00
2018-07-15T16:08:59.439Z,61.80
2018-07-15T16:11:27.695Z,58.60
2018-07-15T16:13:55.974Z,57.80
2018-07-15T16:16:24.212Z,55.90
2018-07-15T16:18:52.480Z,52.50
2018-07-15T16:21:20.757Z,51.60
2018-07-15T16:23:49.008Z,50.30
2018-07-15T16:26:17.324Z,49.90
2018-07-15T16:28:45.580Z,47.00
2018-07-15T16:31:13.842Z,46.70
2018-07-15T16:33:42.136Z,46.60
2018-07-15T16:36:10.364Z,44.70
2018-07-15T16:38:38.647Z,44.70
2018-07-15T16:41:07.013Z,44.80
2018-07-15T16:43:35.284Z,43.40
2018-07-15T16:46:03.569Z,42.90
2018-07-15T16:48:31.853Z,41.80
2018-07-15T16:51:00.975Z,40.70
2018-07-15T16:53:29.246Z,40.40
2018-07-15T16:55:57.601Z,40.00
2018-07-15T16:58:25.788Z,41.80
2018-07-15T17:00:54.052Z,43.70
2018-07-15T17:03:22.566Z,44.00
2018-07-15T17:05:50.815Z,45.50
2018-07-15T17:08:19.075Z,44.80
2018-07-15T17:10:47.338Z,45.00
2018-07-15T17:13:15.661Z,44.90
2018-07-15T17:15:43.908Z,44.20
2018-07-15T17:18:12.173Z,42.90
2018-07-15T17:20:40.475Z,42.10
2018-07-15T17:23:08.736Z,40.70
2018-07-15T17:25:36.999Z,40.40
2018-07-15T17:28:05.381Z,39.80
2018-07-15T17:30:33.720Z,39.10
2018-07-15T17:33:01.965Z,40.50
2018-07-15T17:35:30.224Z,41.50
2018-07-15T17:37:58.484Z,42.80
2018-07-15T17:40:26.830Z,43.80
2018-07-15T17:42:55.060Z,44.60
2018-07-15T17:45:23.312Z,43.80
2018-07-15T17:47:51.565Z,45.20
2018-07-15T17:50:19.821Z,46.30
2018-07-15T17:52:48.092Z,46.50
2018-07-15T17:55:16.345Z,48.10
2018-07-15T17:57:44.604Z,49.10
2018-07-15T18:00:12.924Z,50.20
2018-07-15T18:02:41.193Z,51.40
2018-07-15T18:05:09.446Z,52.10
2018-07-15T18:07:37.712Z,53.10
2018-07-15T18:10:05.963Z,54.60
2018-07-15T18:12:34.265Z,55.60
2018-07-15T18:15:02.511Z,56.80
2018-07-15T18:17:30.740Z,58.90
2018-07-15T18:19:59.090Z,59.80
2018-07-15T18:22:27.312Z,61.80
2018-07-15T18:24:55.573Z,62.50
2018-07-15T18:27:23.973Z,63.00
2018-07-15T18:29:52.155Z,63.70
2018-07-15T18:32:20.396Z,65.10
2018-07-15T18:34:48.644Z,65.00
2018-07-15T18:37:16.883Z,65.70
2018-07-15T18:39:45.129Z,66.00
2018-07-15T18:42:13.384Z,66.90
2018-07-15T18:44:41.617Z,67.10
2018-07-15T18:47:09.864Z,68.40
2018-07-15T18:49:38.108Z,68.20
2018-07-15T18:52:06.409Z,69.10
2018-07-15T18:54:34.660Z,68.40
2018-07-15T18:57:02.918Z,69.00
2018-07-15T18:59:31.172Z,70.10
2018-07-15T19:01:59.403Z,68.90
2018-07-15T19:04:27.664Z,69.30
2018-07-15T19:06:55.950Z,70.30
2018-07-15T19:09:24.184Z,69.80
2018-07-15T19:11:52.441Z,71.30
2018-07-15T19:14:20.688Z,70.80
2018-07-15T19:16:48.952Z,70.40
2018-07-15T19:19:17.220Z,71.30
2018-07-15T19:21:45.472Z,72.00
2018-07-15T19:24:13.845Z,71.90
2018-07-15T19:26:42.105Z,72.70
2018-07-15T19:29:10.369Z,72.00
2018-07-15T19:31:38.707Z,72.40
2018-07-15T19:34:06.929Z,71.80
2018-07-15T19:36:35.189Z,71.70
2018-07-15T19:39:04.526Z,72.60
2018-07-15T19:41:32.708Z,72.70
2018-07-15T19:44:00.984Z,71.80
2018-07-15T19:46:29.234Z,72.40
2018-07-15T19:48:57.505Z,73.20
2018-07-15T19:51:25.764Z,74.40
2018-07-15T19:53:54.039Z,75.20
2018-07-15T19:56:22.724Z,75.80
2018-07-15T19:58:51.000Z,75.10
2018-07-15T20:01:19.363Z,74.40
2018-07-15T20:03:47.642Z,74.00
2018-07-15T20:06:15.956Z,75.60
2018-07-15T20:08:44.242Z,76.00
2018-07-15T20:11:12.516Z,74.90
2018-07-15T20:13:40.774Z,76.30
2018-07-15T20:16:09.045Z,75.90
2018-07-15T20:18:37.462Z,77.10
2018-07-15T20:21:05.841Z,77.10
2018-07-15T20:23:34.152Z,75.40
2018-07-15T20:26:02.411Z,74.60
2018-07-15T20:28:30.672Z,74.90
2018-07-15T20:30:58.941Z,76.90
2018-07-15T20:33:27.175Z,77.50
2018-07-15T20:35:55.429Z,77.60
2018-07-15T20:38:23.679Z,75.50
2018-07-15T20:40:51.968Z,76.90
2018-07-15T20:43:20.200Z,76.30
2018-07-15T20:45:48.484Z,75.70
2018-07-15T20:48:16.736Z,76.00
2018-07-15T20:50:45.032Z,76.60
2018-07-15T20:53:13.314Z,76.50
2018-07-15T20:55:41.563Z,76.70
2018-07-15T20:58:09.865Z,76.70
2018-07-15T21:00:38.119Z,77.30
2018-07-15T21:03:06.461Z,78.80
2018-07-15T21:05:34.719Z,78.30
2018-07-15T21:08:02.989Z,78.70
2018-07-15T21:10:31.273Z,80.40
2018-07-15T21:12:59.538Z,80.80
2018-07-15T21:15:27.788Z,81.40
2018-07-15T21:17:56.074Z,82.10
2018-07-15T21:20:24.364Z,80.50
2018-07-15T21:22:52.609Z,80.50
2018-07-15T21:25:21.465Z,80.80
2018-07-15T21:27:49.732Z,81.60
2018-07-15T21:30:18.001Z,81.20
2018-07-15T21:32:46.228Z,81.50
2018-07-15T21:35:14.480Z,81.50
2018-07-15T21:37:42.750Z,81.10
2018-07-15T21:40:10.992Z,81.40
2018-07-15T21:42:39.244Z,83.00
2018-07-15T21:45:07.513Z,83.80
2018-07-15T21:47:35.784Z,83.90
2018-07-15T21:50:04.316Z,83.50
2018-07-15T21:52:33.112Z,84.00
2018-07-15T21:55:01.517Z,84.00
2018-07-15T21:57:29.795Z,83.50
2018-07-15T21:59:58.067Z,83.20
2018-07-15T22:02:26.471Z,83.00
2018-07-15T22:04:57.003Z,83.50
2018-07-15T22:07:36.805Z,84.10
2018-07-15T22:11:07.577Z,83.00
2018-07-15T22:13:35.836Z,83.60
2018-07-15T22:16:04.138Z,83.90
2018-07-15T22:18:32.384Z,84.60
2018-07-15T22:21:00.652Z,84.60
2018-07-15T22:23:29.062Z,85.40
2018-07-15T22:25:57.491Z,85.40
2018-07-15T22:28:25.733Z,85.40
2018-07-15T22:30:53.992Z,84.80
2018-07-15T22:33:22.260Z,85.30
2018-07-15T22:35:50.512Z,84.50
2018-07-15T22:38:18.756Z,84.40
2018-07-15T22:40:47.033Z,84.60
2018-07-15T22:43:15.283Z,85.40
2018-07-15T22:45:43.542Z,85.20
2018-07-15T22:48:11.793Z,85.80
2018-07-15T22:50:40.029Z,86.30
2018-07-15T22:53:08.280Z,86.60
2018-07-15T22:55:36.515Z,86.60
2018-07-15T22:58:04.825Z,87.00
2018-07-15T23:00:33.117Z,86.10
2018-07-15T23:03:01.393Z,85.90
2018-07-15T23:05:46.077Z,85.70
2018-07-15T23:08:14.333Z,85.50
2018-07-15T23:10:42.576Z,86.00
2018-07-15T23:13:11.488Z,86.90
2018-07-15T23:15:40.105Z,88.00
2018-07-15T23:18:08.454Z,88.40
2018-07-15T23:20:37.505Z,88.60
2018-07-15T23:23:06.604Z,88.70
2018-07-15T23:25:35.092Z,89.00
2018-07-15T23:28:04.037Z,89.10
2018-07-15T23:30:32.909Z,88.80
2018-07-15T23:33:01.525Z,88.50
2018-07-15T23:35:29.984Z,88.60
2018-07-15T23:37:58.277Z,89.40
2018-07-15T23:40:26.656Z,89.40
2018-07-15T23:42:55.721Z,89.30
2018-07-15T23:45:24.772Z,89.30
2018-07-15T23:47:53.392Z,89.20
2018-07-15T23:50:21.752Z,89.40
2018-07-15T23:52:50.038Z,89.20
2018-07-15T23:55:18.302Z,88.90
2018-07-15T23:57:46.579Z,89.20
